createdAt,value
2023-02-16T00:02:00.187Z,14.35
2023-02-16T00:04:30.081Z,16.52
2023-02-16T00:06:59.316Z,14.07
2023-02-16T00:09:26.825Z,14.48
2023-02-16T00:12:11.912Z,13.50
2023-02-16T00:14:40.693Z,12.27
2023-02-16T00:17:11.853Z,13.57
2023-02-16T00:19:41.908Z,13.27
2023-02-16T00:22:11.560Z,13.68
2023-02-16T00:24:39.125Z,13.20
2023-02-16T00:27:14.329Z,13.63
2023-02-16T00:29:44.777Z,13.52
2023-02-16T00:32:14.506Z,14.00
2023-02-16T00:34:45.211Z,14.40
2023-02-16T00:37:15.272Z,15.38
2023-02-16T00:39:44.481Z,16.13
2023-02-16T00:42:18.348Z,16.23
2023-02-16T00:44:48.911Z,16.33
2023-02-16T00:47:20.389Z,15.23
2023-02-16T00:49:48.538Z,16.88
2023-02-16T00:52:36.452Z,16.35
2023-02-16T00:55:07.478Z,16.00
2023-02-16T00:57:38.438Z,14.73
2023-02-16T01:00:09.605Z,18.17
2023-02-16T01:02:37.229Z,15.10
2023-02-16T01:05:04.934Z,14.95
2023-02-16T01:07:51.299Z,15.57
2023-02-16T01:10:36.636Z,14.65
2023-02-16T01:13:04.637Z,16.10
2023-02-16T01:15:32.729Z,16.48
2023-02-16T01:18:00.499Z,15.60
2023-02-16T01:20:28.798Z,15.73
2023-02-16T01:22:57.812Z,17.02
2023-02-16T01:25:25.553Z,16.38
2023-02-16T01:27:54.562Z,14.45
2023-02-16T01:30:24.087Z,14.88
2023-02-16T01:32:52.338Z,15.05
2023-02-16T01:35:20.918Z,15.43
2023-02-16T01:37:48.698Z,15.15
2023-02-16T01:40:31.536Z,15.02
2023-02-16T01:43:05.264Z,14.43
2023-02-16T01:45:36.758Z,14.63
2023-02-16T01:48:06.958Z,13.80
2023-02-16T01:50:46.917Z,12.90
2023-02-16T01:53:23.406Z,13.50
2023-02-16T01:55:59.285Z,13.40
2023-02-16T01:58:36.612Z,13.18
2023-02-16T02:01:37.284Z,14.15
2023-02-16T02:04:30.622Z,14.15
2023-02-16T02:06:58.290Z,13.95
2023-02-16T02:09:35.718Z,14.00
2023-02-16T02:12:14.979Z,13.50
2023-02-16T02:14:43.532Z,14.77
2023-02-16T02:17:15.812Z,15.20
2023-02-16T02:19:52.073Z,16.02
2023-02-16T02:23:21.840Z,14.60
2023-02-16T02:26:15.215Z,14.02
2023-02-16T02:28:54.410Z,14.40
2023-02-16T02:31:35.242Z,13.73
2023-02-16T02:34:13.774Z,13.27
2023-02-16T02:36:50.895Z,13.88
2023-02-16T02:39:34.121Z,14.57
2023-02-16T02:42:10.631Z,14.68
2023-02-16T02:44:50.803Z,15.52
2023-02-16T02:47:18.984Z,15.05
2023-02-16T02:49:51.810Z,15.98
2023-02-16T02:52:20.244Z,15.25
2023-02-16T02:55:07.354Z,14.82
2023-02-16T02:57:59.392Z,14.88
2023-02-16T03:00:44.936Z,13.80
2023-02-16T03:03:18.561Z,14.95
2023-02-16T03:05:50.401Z,13.77
2023-02-16T03:08:21.544Z,14.20
2023-02-16T03:11:10.317Z,13.25
2023-02-16T03:13:41.210Z,14.75
2023-02-16T03:16:14.032Z,13.48
2023-02-16T03:19:02.130Z,13.23
2023-02-16T03:21:48.076Z,13.38
2023-02-16T03:24:40.057Z,12.85
2023-02-16T03:27:27.448Z,11.88
2023-02-16T03:29:57.774Z,13.32
2023-02-16T03:32:26.960Z,13.30
2023-02-16T03:34:54.613Z,12.30
2023-02-16T03:37:22.146Z,12.57
2023-02-16T03:40:08.108Z,13.65
2023-02-16T03:42:35.707Z,12.43
2023-02-16T03:45:03.376Z,11.20
2023-02-16T03:47:32.322Z,11.50
2023-02-16T03:49:59.912Z,12.02
2023-02-16T03:52:27.558Z,12.13
2023-02-16T03:54:55.083Z,11.93
2023-02-16T03:57:22.587Z,11.85
2023-02-16T03:59:50.805Z,12.80
2023-02-16T04:02:18.442Z,10.98
2023-02-16T04:04:47.861Z,10.75
2023-02-16T04:07:15.460Z,11.18
2023-02-16T04:09:43.053Z,12.43
2023-02-16T04:12:30.183Z,11.25
2023-02-16T04:14:58.005Z,12.30
2023-02-16T04:17:25.717Z,13.32
2023-02-16T04:19:54.634Z,12.32
2023-02-16T04:22:22.247Z,12.73
2023-02-16T04:24:49.802Z,12.65
2023-02-16T04:27:17.347Z,12.60
2023-02-16T04:29:44.959Z,12.90
2023-02-16T04:32:12.629Z,13.20
2023-02-16T04:34:40.170Z,13.85
2023-02-16T04:37:09.188Z,13.23
2023-02-16T04:39:36.815Z,12.27
2023-02-16T04:42:05.064Z,11.43
2023-02-16T04:44:32.682Z,11.48
2023-02-16T04:47:00.444Z,12.18
2023-02-16T04:49:28.067Z,12.70
2023-02-16T04:51:55.767Z,12.98
2023-02-16T04:54:24.691Z,12.65
2023-02-16T04:56:52.216Z,11.00
2023-02-16T04:59:19.986Z,12.30
2023-02-16T05:01:47.592Z,12.13
2023-02-16T05:04:16.482Z,11.38
2023-02-16T05:06:44.290Z,11.70
2023-02-16T05:09:12.378Z,11.10
2023-02-16T05:11:58.653Z,10.55
2023-02-16T05:14:44.981Z,10.68
2023-02-16T05:17:15.956Z,11.77
2023-02-16T05:19:45.051Z,11.63
2023-02-16T05:22:12.944Z,10.77
2023-02-16T05:24:40.846Z,10.80
2023-02-16T05:27:13.346Z,11.48
2023-02-16T05:29:41.179Z,8.80
2023-02-16T05:32:08.870Z,11.77
2023-02-16T05:34:36.480Z,11.48
2023-02-16T05:37:04.135Z,11.00
2023-02-16T05:39:31.868Z,11.52
2023-02-16T05:42:00.020Z,11.73
2023-02-16T05:44:29.045Z,11.45
2023-02-16T05:46:56.985Z,11.20
2023-02-16T05:49:24.657Z,12.00
2023-02-16T05:51:52.591Z,10.25
2023-02-16T05:54:20.307Z,10.50
2023-02-16T05:56:49.907Z,12.38
2023-02-16T05:59:18.243Z,11.23
2023-02-16T06:01:51.319Z,11.07
2023-02-16T06:04:21.044Z,12.27
2023-02-16T06:06:48.697Z,10.80
2023-02-16T06:09:16.373Z,10.88
2023-02-16T06:11:44.150Z,10.18
2023-02-16T06:14:13.788Z,10.07
2023-02-16T06:16:44.233Z,10.55
2023-02-16T06:19:13.505Z,11.18
2023-02-16T06:21:41.988Z,11.70
2023-02-16T06:24:11.724Z,10.98
2023-02-16T06:26:39.391Z,10.63
2023-02-16T06:29:07.448Z,12.00
2023-02-16T06:31:36.554Z,12.30
2023-02-16T06:34:05.299Z,13.48
2023-02-16T06:36:35.146Z,12.02
2023-02-16T06:39:02.773Z,12.02
2023-02-16T06:41:35.681Z,12.30
2023-02-16T06:44:06.121Z,12.40
2023-02-16T06:46:33.894Z,10.90
2023-02-16T06:49:02.206Z,10.70
2023-02-16T06:51:29.832Z,11.85
2023-02-16T06:53:58.754Z,12.75
2023-02-16T06:56:26.467Z,15.20
2023-02-16T06:58:54.103Z,13.90
2023-02-16T07:01:25.585Z,11.48
2023-02-16T07:03:55.067Z,12.45
2023-02-16T07:06:24.070Z,11.20
2023-02-16T07:08:51.660Z,11.95
2023-02-16T07:11:21.188Z,10.75
2023-02-16T07:13:49.086Z,10.80
2023-02-16T07:16:17.429Z,11.45
2023-02-16T07:18:46.142Z,12.27
2023-02-16T07:21:14.150Z,12.25
2023-02-16T07:23:41.739Z,10.80
2023-02-16T07:26:09.624Z,15.00
2023-02-16T07:28:38.638Z,13.85
2023-02-16T07:31:10.309Z,16.40
2023-02-16T07:33:38.764Z,12.52
2023-02-16T07:36:07.294Z,12.85
2023-02-16T07:38:35.213Z,11.93
2023-02-16T07:41:03.569Z,12.10
2023-02-16T07:43:31.944Z,11.90
2023-02-16T07:46:00.975Z,11.70
2023-02-16T07:48:28.666Z,11.48
2023-02-16T07:50:56.310Z,11.07
2023-02-16T07:53:23.861Z,10.75
2023-02-16T07:55:51.493Z,11.43
2023-02-16T07:58:28.041Z,11.45
2023-02-16T08:00:57.032Z,11.60
2023-02-16T08:03:26.014Z,11.27
2023-02-16T08:05:56.600Z,11.23
2023-02-16T08:08:24.369Z,11.38
2023-02-16T08:10:51.972Z,10.95
2023-02-16T08:13:19.696Z,12.30
2023-02-16T08:15:47.285Z,12.48
2023-02-16T08:18:15.203Z,11.23
2023-02-16T08:21:03.963Z,11.60
2023-02-16T08:23:32.349Z,11.95
2023-02-16T08:26:00.009Z,12.15
2023-02-16T08:28:28.881Z,11.85
2023-02-16T08:30:56.938Z,12.48
2023-02-16T08:33:24.994Z,11.65
2023-02-16T08:35:54.142Z,11.80
2023-02-16T08:38:21.749Z,11.73
2023-02-16T08:40:49.663Z,12.48
2023-02-16T08:43:17.376Z,12.75
2023-02-16T08:45:45.233Z,12.77
2023-02-16T08:48:12.788Z,13.10
2023-02-16T08:50:46.886Z,17.33
2023-02-16T08:53:15.887Z,15.15
2023-02-16T08:55:43.481Z,13.15
2023-02-16T08:58:11.066Z,12.48
2023-02-16T09:00:38.885Z,11.18
2023-02-16T09:03:06.957Z,11.55
2023-02-16T09:05:35.208Z,11.35
2023-02-16T09:08:03.425Z,10.75
2023-02-16T09:10:32.873Z,11.30
2023-02-16T09:13:00.509Z,10.40
2023-02-16T09:15:28.690Z,10.80
2023-02-16T09:17:56.385Z,10.27
2023-02-16T09:20:24.484Z,9.85
2023-02-16T09:22:52.476Z,10.38
2023-02-16T09:25:20.106Z,10.25
2023-02-16T09:27:49.461Z,10.32
2023-02-16T09:30:17.337Z,11.60
2023-02-16T09:32:45.132Z,10.27
2023-02-16T09:35:12.744Z,10.23
2023-02-16T09:37:40.280Z,9.93
2023-02-16T09:40:11.701Z,10.63
2023-02-16T09:43:00.691Z,10.88
2023-02-16T09:45:29.618Z,10.50
2023-02-16T09:47:59.220Z,10.70
2023-02-16T09:50:53.935Z,9.60
2023-02-16T09:53:22.995Z,9.77
2023-02-16T09:56:03.106Z,10.23
2023-02-16T09:58:40.505Z,10.05
2023-02-16T10:01:17.967Z,10.02
2023-02-16T10:03:55.480Z,9.45
2023-02-16T10:06:33.087Z,9.88
2023-02-16T10:09:07.331Z,9.82
2023-02-16T10:11:42.603Z,8.73
2023-02-16T10:14:23.273Z,9.18
2023-02-16T10:16:57.989Z,9.75
2023-02-16T10:19:30.291Z,10.07
2023-02-16T10:22:01.180Z,9.40
2023-02-16T10:24:32.672Z,9.75
2023-02-16T10:27:07.524Z,10.43
2023-02-16T10:29:36.490Z,9.88
2023-02-16T10:32:13.443Z,10.40
2023-02-16T10:34:49.429Z,9.32
2023-02-16T10:37:42.632Z,10.98
2023-02-16T10:40:24.263Z,9.65
2023-02-16T10:42:59.399Z,9.73
2023-02-16T10:45:34.200Z,9.70
2023-02-16T10:48:01.812Z,10.35
2023-02-16T10:50:33.025Z,9.82
2023-02-16T10:53:05.584Z,9.95
2023-02-16T10:55:33.149Z,10.23
2023-02-16T10:58:02.967Z,10.23
2023-02-16T11:00:46.700Z,9.77
2023-02-16T11:03:15.824Z,9.27
2023-02-16T11:05:43.542Z,9.60
2023-02-16T11:08:12.850Z,9.57
2023-02-16T11:10:49.004Z,9.55
2023-02-16T11:13:32.886Z,9.32
2023-02-16T11:16:07.155Z,8.60
2023-02-16T11:18:37.850Z,8.93
2023-02-16T11:21:07.370Z,8.98
2023-02-16T11:23:36.407Z,10.15
2023-02-16T11:26:06.590Z,9.63
2023-02-16T11:28:36.944Z,9.30
2023-02-16T11:35:11.462Z,8.45
2023-02-16T11:37:41.585Z,8.90
2023-02-16T11:40:21.486Z,8.65
2023-02-16T11:42:51.956Z,8.95
2023-02-16T11:45:29.620Z,8.20
2023-02-16T11:48:01.508Z,8.15
2023-02-16T11:50:33.467Z,7.32
2023-02-16T11:53:16.199Z,6.53
2023-02-16T11:55:46.525Z,8.80
2023-02-16T11:58:17.354Z,14.18
2023-02-16T12:00:57.479Z,7.95
2023-02-16T12:03:44.817Z,6.18
2023-02-16T12:06:28.686Z,6.18
2023-02-16T12:09:09.003Z,8.23
2023-02-16T12:11:44.733Z,6.35
2023-02-16T12:14:24.729Z,5.47
2023-02-16T12:16:58.628Z,5.63
2023-02-16T12:19:39.402Z,5.30
2023-02-16T12:22:17.334Z,4.45
2023-02-16T12:24:54.467Z,3.40
2023-02-16T12:27:27.481Z,3.10
2023-02-16T12:30:01.759Z,3.38
2023-02-16T12:32:43.937Z,3.10
2023-02-16T12:35:34.503Z,3.17
2023-02-16T12:38:14.344Z,3.17
2023-02-16T12:40:52.517Z,3.25
2023-02-16T12:43:33.532Z,3.38
2023-02-16T12:46:07.181Z,2.70
2023-02-16T12:48:43.145Z,3.40
2023-02-16T12:51:16.503Z,2.60
2023-02-16T12:56:21.473Z,2.47
2023-02-16T12:58:55.324Z,3.50
2023-02-16T13:01:26.691Z,3.25
2023-02-16T13:03:58.544Z,3.97
2023-02-16T13:06:30.610Z,3.97
2023-02-16T13:09:12.150Z,4.63
2023-02-16T13:11:46.560Z,4.68
2023-02-16T13:14:18.601Z,4.60
2023-02-16T13:16:50.871Z,4.43
2023-02-16T13:19:18.533Z,4.43
2023-02-16T13:22:19.372Z,4.20
2023-02-16T13:24:59.863Z,4.60
2023-02-16T13:27:36.959Z,4.72
2023-02-16T13:30:38.133Z,5.38
2023-02-16T13:33:21.884Z,5.25
2023-02-16T13:38:50.932Z,6.43
2023-02-16T13:41:35.616Z,5.47
2023-02-16T13:44:08.977Z,5.00
2023-02-16T13:49:07.563Z,4.80
2023-02-16T13:51:43.392Z,5.10
2023-02-16T13:54:27.845Z,5.55
2023-02-16T13:56:56.841Z,5.40
2023-02-16T13:59:57.532Z,5.75
2023-02-16T14:02:58.588Z,5.90
2023-02-16T14:05:35.191Z,5.82
2023-02-16T14:08:30.332Z,5.65
2023-02-16T14:11:04.524Z,6.32
2023-02-16T14:13:45.261Z,5.32
2023-02-16T14:16:27.036Z,6.07
2023-02-16T14:18:58.166Z,5.13
2023-02-16T14:21:33.029Z,4.75
2023-02-16T14:24:03.207Z,4.35
2023-02-16T14:26:31.710Z,4.63
2023-02-16T14:29:12.365Z,4.30
2023-02-16T14:31:45.317Z,4.57
2023-02-16T14:34:18.776Z,4.72
2023-02-16T14:39:34.966Z,4.60
2023-02-16T14:42:08.482Z,4.03
2023-02-16T14:44:56.227Z,4.43
2023-02-16T14:47:37.883Z,4.32
2023-02-16T14:50:24.066Z,3.88
2023-02-16T14:53:17.808Z,4.10
2023-02-16T14:56:28.436Z,3.90
2023-02-16T14:59:01.546Z,2.92
2023-02-16T15:01:41.082Z,3.10
2023-02-16T15:04:10.844Z,4.32
2023-02-16T15:06:42.580Z,4.10
2023-02-16T15:09:17.640Z,4.38
2023-02-16T15:12:08.895Z,3.63
2023-02-16T15:14:42.967Z,3.10
2023-02-16T15:17:25.238Z,3.28
2023-02-16T15:19:54.641Z,3.45
2023-02-16T15:22:25.354Z,3.28
2023-02-16T15:24:58.070Z,3.20
2023-02-16T15:27:25.962Z,3.00
2023-02-16T15:30:09.311Z,3.20
2023-02-16T15:32:38.832Z,3.33
2023-02-16T15:35:14.370Z,2.97
2023-02-16T15:37:41.951Z,2.85
2023-02-16T15:40:30.682Z,2.85
2023-02-16T15:43:04.019Z,2.95
2023-02-16T15:45:35.148Z,2.78
2023-02-16T15:48:22.806Z,3.00
2023-02-16T15:50:53.455Z,3.13
2023-02-16T15:53:34.783Z,3.15
2023-02-16T15:56:05.904Z,2.65
2023-02-16T15:58:34.135Z,3.28
2023-02-16T16:01:02.483Z,2.85
2023-02-16T16:03:34.247Z,2.55
2023-02-16T16:06:06.036Z,2.80
2023-02-16T16:08:34.141Z,2.90
2023-02-16T16:11:02.659Z,5.03
2023-02-16T16:13:32.870Z,6.03
2023-02-16T16:16:07.130Z,6.03
2023-02-16T16:18:44.103Z,4.13
2023-02-16T16:21:19.119Z,3.58
2023-02-16T16:23:58.831Z,3.33
2023-02-16T16:26:28.097Z,4.45
2023-02-16T16:28:57.017Z,4.15
2023-02-16T16:31:39.378Z,4.20
2023-02-16T16:34:10.448Z,3.80
2023-02-16T16:36:41.833Z,3.85
2023-02-16T16:39:20.108Z,3.95
2023-02-16T16:42:07.889Z,4.72
2023-02-16T16:44:37.647Z,4.95
2023-02-16T16:47:14.500Z,4.25
2023-02-16T16:49:51.334Z,4.35
2023-02-16T16:52:40.915Z,4.20
2023-02-16T16:55:22.423Z,4.20
2023-02-16T16:57:51.769Z,4.18
2023-02-16T17:00:20.424Z,5.82
2023-02-16T17:02:48.474Z,6.75
2023-02-16T17:05:17.674Z,7.78
2023-02-16T17:07:48.933Z,8.60
2023-02-16T17:10:18.709Z,8.23
2023-02-16T17:12:47.026Z,9.32
2023-02-16T17:15:30.228Z,12.20
2023-02-16T17:17:58.870Z,10.57
2023-02-16T17:20:27.966Z,6.45
2023-02-16T17:22:55.708Z,9.63
2023-02-16T17:25:23.330Z,16.17
2023-02-16T17:27:51.211Z,12.32
2023-02-16T17:30:18.831Z,9.95
2023-02-16T17:32:46.346Z,10.90
2023-02-16T17:35:14.726Z,11.27
2023-02-16T17:37:43.687Z,9.73
2023-02-16T17:40:15.336Z,8.13
2023-02-16T17:42:42.902Z,8.30
2023-02-16T17:45:10.832Z,6.85
2023-02-16T17:47:38.471Z,9.20
2023-02-16T17:50:07.242Z,8.10
2023-02-16T17:52:38.735Z,4.90
2023-02-16T17:55:08.963Z,4.13
2023-02-16T17:57:37.339Z,4.10
2023-02-16T18:00:07.104Z,3.80
2023-02-16T18:02:34.967Z,3.45
2023-02-16T18:05:02.686Z,3.50
2023-02-16T18:07:30.367Z,4.70
2023-02-16T18:09:57.909Z,3.17
2023-02-16T18:12:28.391Z,3.67
2023-02-16T18:14:56.196Z,4.22
2023-02-16T18:17:23.789Z,3.70
2023-02-16T18:19:51.411Z,4.00
2023-02-16T18:22:18.965Z,3.53
2023-02-16T18:24:50.294Z,3.47
2023-02-16T18:27:21.416Z,3.90
2023-02-16T18:29:52.076Z,3.90
2023-02-16T18:32:19.695Z,4.65
2023-02-16T18:34:48.351Z,6.65
2023-02-16T18:37:16.074Z,4.85
2023-02-16T18:39:43.792Z,4.70
2023-02-16T18:42:11.515Z,7.22
2023-02-16T18:44:39.143Z,9.55
2023-02-16T18:47:08.749Z,9.07
2023-02-16T18:49:36.399Z,7.60
2023-02-16T18:52:04.111Z,6.88
2023-02-16T18:54:32.250Z,6.93
2023-02-16T18:56:59.832Z,7.72
2023-02-16T18:59:27.496Z,8.90
2023-02-16T19:01:56.827Z,9.02
2023-02-16T19:04:26.700Z,8.45
2023-02-16T19:06:54.319Z,5.05
2023-02-16T19:09:22.019Z,4.78
2023-02-16T19:11:49.658Z,4.00
2023-02-16T19:14:18.512Z,4.25
2023-02-16T19:16:46.551Z,3.42
2023-02-16T19:19:14.215Z,3.55
2023-02-16T19:21:44.273Z,4.00
2023-02-16T19:24:12.889Z,3.67
2023-02-16T19:26:40.765Z,3.75
2023-02-16T19:29:08.521Z,4.60
2023-02-16T19:31:36.374Z,4.60
2023-02-16T19:34:08.138Z,4.78
2023-02-16T19:36:35.784Z,5.03
2023-02-16T19:39:04.704Z,5.97
2023-02-16T19:41:35.694Z,5.90
2023-02-16T19:44:07.653Z,8.75
2023-02-16T19:46:35.397Z,5.78
2023-02-16T19:49:03.381Z,6.78
2023-02-16T19:51:31.355Z,6.47
2023-02-16T19:53:59.425Z,7.53
2023-02-16T19:56:28.669Z,8.23
2023-02-16T19:58:58.877Z,8.00
2023-02-16T20:01:28.657Z,8.75
2023-02-16T20:03:58.056Z,8.55
2023-02-16T20:06:28.178Z,8.55
2023-02-16T20:08:57.414Z,8.13
2023-02-16T20:11:28.924Z,7.45
2023-02-16T20:13:57.056Z,7.18
2023-02-16T20:16:26.310Z,7.18
2023-02-16T20:18:54.459Z,8.85
2023-02-16T20:21:23.944Z,8.63
2023-02-16T20:23:54.882Z,6.75
2023-02-16T20:26:24.363Z,7.63
2023-02-16T20:28:53.958Z,7.80
2023-02-16T20:31:26.103Z,8.00
2023-02-16T20:33:54.157Z,9.40
2023-02-16T20:36:22.708Z,7.93
2023-02-16T20:38:51.240Z,10.60
2023-02-16T20:41:19.686Z,12.43
2023-02-16T20:43:48.035Z,9.88
2023-02-16T20:46:18.502Z,7.07
2023-02-16T20:48:46.328Z,7.97
2023-02-16T20:51:18.672Z,8.25
2023-02-16T20:53:47.615Z,7.88
2023-02-16T20:56:19.516Z,7.45
2023-02-16T20:58:49.451Z,3.97
2023-02-16T21:01:22.392Z,4.13
2023-02-16T21:03:50.373Z,4.50
2023-02-16T21:06:18.309Z,5.18
2023-02-16T21:08:46.196Z,4.40
2023-02-16T21:11:14.468Z,4.88
2023-02-16T21:13:42.851Z,4.13
2023-02-16T21:16:10.974Z,7.25
2023-02-16T21:18:40.708Z,5.55
2023-02-16T21:21:09.402Z,4.20
2023-02-16T21:23:37.565Z,4.13
2023-02-16T21:26:06.707Z,3.70
2023-02-16T21:28:34.545Z,3.80
2023-02-16T21:31:04.144Z,2.90
2023-02-16T21:33:31.838Z,1.83
2023-02-16T21:36:06.206Z,2.47
2023-02-16T21:38:35.838Z,2.67
2023-02-16T21:41:23.123Z,2.38
2023-02-16T21:43:51.093Z,2.13
2023-02-16T21:46:18.797Z,3.53
2023-02-16T21:48:45.472Z,2.20
2023-02-16T21:51:15.264Z,2.20
2023-02-16T21:53:43.528Z,2.60
2023-02-16T21:56:23.915Z,2.58
2023-02-16T21:58:51.571Z,2.95
2023-02-16T22:01:23.767Z,2.88
2023-02-16T22:03:56.009Z,3.08
2023-02-16T22:06:25.895Z,2.88
2023-02-16T22:08:53.828Z,3.25
2023-02-16T22:11:21.413Z,2.88
2023-02-16T22:13:53.187Z,2.80
2023-02-16T22:16:21.369Z,2.40
2023-02-16T22:18:49.894Z,2.28
2023-02-16T22:21:18.043Z,2.67
2023-02-16T22:23:46.950Z,3.03
2023-02-16T22:26:21.575Z,2.72
2023-02-16T22:28:49.289Z,2.90
2023-02-16T22:31:17.444Z,3.38
2023-02-16T22:33:45.103Z,2.80
2023-02-16T22:36:13.998Z,2.63
2023-02-16T22:38:42.285Z,2.85
2023-02-16T22:41:12.947Z,2.83
2023-02-16T22:43:40.996Z,2.33
2023-02-16T22:46:09.896Z,2.30
2023-02-16T22:48:37.501Z,2.03
2023-02-16T22:51:06.857Z,2.53
2023-02-16T22:53:35.442Z,1.98
2023-02-16T22:56:06.048Z,2.38
2023-02-16T22:58:35.874Z,2.20
2023-02-16T23:01:04.158Z,1.83
2023-02-16T23:03:35.100Z,2.17
2023-02-16T23:06:03.298Z,1.95
2023-02-16T23:08:30.946Z,2.08
2023-02-16T23:11:01.602Z,2.60
2023-02-16T23:13:30.864Z,2.00
2023-02-16T23:16:05.029Z,1.85
2023-02-16T23:18:32.832Z,2.15
2023-02-16T23:21:06.227Z,2.38
2023-02-16T23:26:01.443Z,2.13
2023-02-16T23:28:29.027Z,2.05
2023-02-16T23:30:57.842Z,1.92
2023-02-16T23:33:27.033Z,2.53
2023-02-16T23:35:55.710Z,2.15
2023-02-16T23:38:23.372Z,2.03
2023-02-16T23:40:57.301Z,2.38
2023-02-16T23:43:25.280Z,1.85
2023-02-16T23:45:53.390Z,2.05
2023-02-16T23:48:21.313Z,1.83
2023-02-16T23:50:50.545Z,1.77
2023-02-16T23:53:18.880Z,2.28
2023-02-16T23:55:46.728Z,1.88
2023-02-16T23:58:14.312Z,2.10
